Impacts TAF Board
For situational awareness. Not to be used for flight planning purposes.
IDs:

KPDX - Portland Intl Arpt, OR, US

Issued at 2324 UTC 23 Oct 2019
Updated at 0145 UTC 24 Oct 2019
Potential Impact None Slight Moderate High
Time<<24/14Z 24/15Z 24/16Z 24/17Z 24/18Z 24/19Z 24/20Z 24/21Z 24/22Z 24/23Z 25/00Z 25/01Z 25/02Z>>
Type PRVL PRVL PRVL PRVL PRVL PRVL PRVL PRVL PRVL PRVL
VIS 6 6 6 6 6 6 >6 >6 >6 >6
CIG -- -- -- -- -- -- -- -- -- --
Cover FEW FEW FEW FEW FEW FEW FEW FEW FEW FEW
FltCat VFR VFR VFR VFR VFR VFR VFR VFR VFR VFR
WX BR BR BR BR BR BR -- -- -- --
WDir VRB VRB VRB VRB VRB VRB 290 290 290 290
WSpd 0 0 0 0 0 0 4 4 4 4
WGst -- -- -- -- -- -- -- -- -- --
Raw TAF
KPDX 232324Z 2400/2424 VRB04KT P6SM SKC
  FM241300 00000KT 6SM BR FEW250
  FM242000 29004KT P6SM FEW250


METAR Board
Radar Display
Forecast Discussion
For situational awareness. Not to be used for flight planning purposes.